CW2235 Kristiansand NO current weather conditions

sailwx.info

Wind from 263

Air temperature 13.9° C
Dewpoint 10.3° C

Last reported at 2019-Aug-21 20:05 UTC.
Time now 2019-Aug-21 20:17 UTC

Location: N 58°05' E 008°01'.
View on Google Maps.

See reports from other nearby stations

  
Tides and Currents Weather Stations Pressure Air Temp Water Temp Dewpoint Dewpoint Depression Visibility Wind Speed Wind Dir Waves Ship Positions
date/time (UTC)wind fromknots sea level pressurealtimeterstation pressurevisibilityair tempwater tempwave heightnotes
2019-Aug-21 20:05 263 13.9
2019-Aug-21 20:00 263 13.9
2019-Aug-21 19:55 263 13.9
2019-Aug-21 19:50 263 13.9
2019-Aug-21 19:45 263 14.4
2019-Aug-21 19:40 263 14.4
2019-Aug-21 19:35 263 14.4
2019-Aug-21 19:30 263 14.4
2019-Aug-21 19:25 277 14.4
2019-Aug-21 19:20 278 14.4
2019-Aug-21 19:15 254 0 gusting 6 14.4
2019-Aug-21 19:10 259 1 gusting 5 14.4
2019-Aug-21 19:05 353 0 gusting 2 15.0
2019-Aug-21 19:00 257 0 gusting 5 15.0
2019-Aug-21 18:55 250 1 gusting 4 15.0
2019-Aug-21 18:50 259 1 gusting 6 15.0
2019-Aug-21 18:45 15.0
2019-Aug-21 18:40 286 1 gusting 5 15.0
2019-Aug-21 18:35 264 1 gusting 6 15.0
2019-Aug-21 18:30 283 1 gusting 6 15.0
2019-Aug-21 18:25 263 15.6
2019-Aug-21 18:20 330 1 gusting 4 15.6
2019-Aug-21 18:15 297 2 gusting 6 15.6
2019-Aug-21 18:10 358 1 gusting 6 15.6
2019-Aug-21 18:05 339 1 gusting 6 15.6
2019-Aug-21 18:00 296 2 gusting 6 15.6
2019-Aug-21 17:55 302 1 gusting 6 15.6
2019-Aug-21 17:50 322 2 gusting 7 15.6
2019-Aug-21 17:45 296 1 gusting 8 15.6
2019-Aug-21 17:40 352 5 gusting 8 15.6
2019-Aug-21 17:35 347 1 gusting 7 15.6
2019-Aug-21 17:30 313 4 gusting 10 15.6
2019-Aug-21 17:25 288 4 gusting 10 15.6
2019-Aug-21 17:20 15.6
2019-Aug-21 17:15 358 5 gusting 8 15.6
2019-Aug-21 17:10 349 6 gusting 12 15.6
2019-Aug-21 17:05 337 4 gusting 8 16.1
2019-Aug-21 17:00 276 3 gusting 7 16.1
2019-Aug-21 16:55 348 3 gusting 10 16.1
2019-Aug-21 16:50 312 5 gusting 10 16.1
2019-Aug-21 16:45 347 5 gusting 10 16.1
2019-Aug-21 16:40 337 5 gusting 13 16.1
2019-Aug-21 16:35 352 5 gusting 11 16.1
2019-Aug-21 16:30 352 5 gusting 13 16.1
2019-Aug-21 16:25 358 4 gusting 10 16.1
2019-Aug-21 16:20 348 6 gusting 17 16.1
2019-Aug-21 16:15 338 3 gusting 10 16.1
2019-Aug-21 16:10 348 5 gusting 13 16.1
2019-Aug-21 16:05 341 4 gusting 10 16.7
2019-Aug-21 16:00 340 3 gusting 12 16.7
2019-Aug-21 15:55 338 6 gusting 12 16.1
2019-Aug-21 15:50 356 5 gusting 11 16.7
2019-Aug-21 15:45 330 4 gusting 12 16.7
2019-Aug-21 15:40 315 8 gusting 19 16.7
2019-Aug-21 15:35 328 5 gusting 11 16.7
2019-Aug-21 15:30 307 6 gusting 13 16.7
2019-Aug-21 15:25 348 7 gusting 19 16.1
2019-Aug-21 15:20 354 8 gusting 17 16.7
2019-Aug-21 15:15 321 6 gusting 17 16.7
2019-Aug-21 15:10 344 7 gusting 15 16.7
2019-Aug-21 15:05 339 8 gusting 14 16.7
2019-Aug-21 15:00 336 6 gusting 13 16.7
2019-Aug-21 14:55 337 6 gusting 13 16.7
2019-Aug-21 14:50 323 6 gusting 17 16.7
2019-Aug-21 14:45 310 7 gusting 18 16.7
2019-Aug-21 14:40 311 7 gusting 19 16.7
2019-Aug-21 14:35 326 5 gusting 13 16.7
2019-Aug-21 14:30 330 8 gusting 15 16.7
2019-Aug-21 14:25 306 4 gusting 11 17.2
2019-Aug-21 14:20 327 4 gusting 11 16.7
2019-Aug-21 14:15 315 6 gusting 11 16.7
2019-Aug-21 14:10 346 8 gusting 17 16.7
2019-Aug-21 14:05 346 8 gusting 15 16.7
2019-Aug-21 14:00 342 7 gusting 15 16.7
2019-Aug-21 13:55 328 6 gusting 13 16.7
2019-Aug-21 13:50 336 7 gusting 17 16.7
2019-Aug-21 13:45 356 9 gusting 17 16.7
2019-Aug-21 13:40 352 6 gusting 19 16.7
2019-Aug-21 13:35 318 6 gusting 13 16.7
2019-Aug-21 13:30 347 8 gusting 17 16.7
2019-Aug-21 13:25 345 6 gusting 18 17.2
2019-Aug-21 13:20 351 5 gusting 13 17.2
2019-Aug-21 13:15 340 4 gusting 13 16.7
2019-Aug-21 13:10 334 8 gusting 22 16.7
2019-Aug-21 13:05 355 7 gusting 17 16.7
2019-Aug-21 13:00 292 10 gusting 14 16.7
2019-Aug-21 12:55 351 8 gusting 17 16.7
2019-Aug-21 12:50 330 9 gusting 14 16.7
2019-Aug-21 12:45 355 6 gusting 13 16.7
2019-Aug-21 12:40 16.7
2019-Aug-21 12:35 354 7 gusting 15 16.7
2019-Aug-21 12:30 332 6 gusting 13 17.2
2019-Aug-21 12:25 344 6 gusting 17 17.2
2019-Aug-21 12:20 332 5 gusting 12 17.2
2019-Aug-21 12:15 277 5 gusting 14 17.2
2019-Aug-21 12:10 343 4 gusting 13 17.2
2019-Aug-21 12:05 17.2
2019-Aug-21 12:00 330 4 gusting 15 17.2
2019-Aug-21 11:55 347 6 gusting 17 17.2
2019-Aug-21 11:50 335 6 gusting 19 17.2
2019-Aug-21 11:45 354 7 gusting 17 17.2
2019-Aug-21 11:40 320 7 gusting 13 17.2
2019-Aug-21 11:35 358 6 gusting 11 17.2
2019-Aug-21 11:30 286 6 gusting 14 17.2
2019-Aug-21 11:25 345 6 gusting 18 17.2
2019-Aug-21 11:20 17.2
2019-Aug-21 11:15 358 7 gusting 13 17.8
2019-Aug-21 11:10 265 4 gusting 10 18.3
2019-Aug-21 11:05 342 4 gusting 10 17.8
2019-Aug-21 11:00 334 4 gusting 10 17.8
2019-Aug-21 10:55 318 5 gusting 11 17.8
2019-Aug-21 10:50 287 4 gusting 12 17.8
2019-Aug-21 10:45 310 6 gusting 12 17.8
2019-Aug-21 10:40 317 4 gusting 10 17.8
2019-Aug-21 10:35 299 5 gusting 12 17.8
2019-Aug-21 10:30 301 4 gusting 12 17.8
2019-Aug-21 10:25 300 5 gusting 11 17.8
2019-Aug-21 10:20 320 4 gusting 10 17.8
2019-Aug-21 10:15 274 4 gusting 11 17.8
2019-Aug-21 10:10 312 4 gusting 10 17.2
2019-Aug-21 10:05 286 5 gusting 10 17.2
2019-Aug-21 10:00 315 4 gusting 7 17.2
2019-Aug-21 09:55 288 5 gusting 10 17.2
2019-Aug-21 09:50 280 2 gusting 6 17.2
2019-Aug-21 09:45 302 5 gusting 10 17.2
2019-Aug-21 09:40 295 4 gusting 10 17.2
2019-Aug-21 09:35 291 4 gusting 12 17.2
2019-Aug-21 09:30 343 3 gusting 6 17.2
2019-Aug-21 09:25 286 2 gusting 11 16.7
2019-Aug-21 09:20 279 5 gusting 10 16.7
2019-Aug-21 09:15 288 2 gusting 8 16.7
2019-Aug-21 09:10 292 3 gusting 10 16.7
2019-Aug-21 09:05 283 4 gusting 10 16.7
2019-Aug-21 09:00 298 4 gusting 11 16.7
2019-Aug-21 08:55 288 4 gusting 11 16.1
2019-Aug-21 08:50 317 6 gusting 11 16.1
2019-Aug-21 08:45 295 4 gusting 7 16.7
2019-Aug-21 08:40 292 4 gusting 7 16.1
2019-Aug-21 08:35 289 4 gusting 8 16.1
2019-Aug-21 08:30 281 5 gusting 13 16.1
2019-Aug-21 08:25 280 4 gusting 11 15.6
2019-Aug-21 08:20 307 6 gusting 13 15.6
2019-Aug-21 08:15 308 4 gusting 12 15.6
2019-Aug-21 08:10 324 6 gusting 13 15.6
2019-Aug-21 08:05 305 6 gusting 14 15.6
2019-Aug-21 08:00 306 5 gusting 10 15.6
2019-Aug-21 07:55 301 4 gusting 10 15.6
2019-Aug-21 07:50 307 6 gusting 12 15.0
2019-Aug-21 07:45 310 5 gusting 10 15.6
2019-Aug-21 07:40 315 3 gusting 10 15.0
2019-Aug-21 07:35 308 5 gusting 10 15.0
2019-Aug-21 07:30 308 4 gusting 6 14.4
2019-Aug-21 07:25 301 4 gusting 11 14.4
2019-Aug-21 07:20 314 3 gusting 6 14.4
2019-Aug-21 07:15 329 4 gusting 7 14.4
2019-Aug-21 07:10 293 5 gusting 8 15.0
2019-Aug-21 07:05 222 2 gusting 8 15.0
2019-Aug-21 07:00 300 0 gusting 2 14.4
2019-Aug-21 06:55 312 0 gusting 4 14.4
2019-Aug-21 06:50 327 4 gusting 7 13.9
2019-Aug-21 06:45 285 0 gusting 2 13.9
2019-Aug-21 06:40 359 0 gusting 2 13.9
2019-Aug-21 06:35 325 1 gusting 2 13.3
2019-Aug-21 06:30 005 13.3
2019-Aug-21 06:25 324 13.3
2019-Aug-21 06:20 314 1 gusting 7 13.3
2019-Aug-21 06:15 318 2 gusting 6 13.3
2019-Aug-21 06:10 295 0 gusting 7 13.3
2019-Aug-21 06:05 298 1 gusting 5 13.3
2019-Aug-21 06:00 301 1 gusting 12 12.8
2019-Aug-21 05:55 289 1 gusting 12 12.8
2019-Aug-21 05:50 332 2 gusting 7 12.8
2019-Aug-21 05:45 342 1 gusting 6 12.2
2019-Aug-21 05:40 290 2 gusting 5 12.2
2019-Aug-21 05:35 280 2 gusting 6 12.2
2019-Aug-21 05:30 307 4 gusting 8 12.2
2019-Aug-21 05:25 281 3 gusting 6 12.2
2019-Aug-21 05:20 293 1 gusting 6 12.2
2019-Aug-21 05:15 275 12.2
2019-Aug-21 05:10 336 0 gusting 4 12.2
2019-Aug-21 05:05 289 0 gusting 2 11.7
2019-Aug-21 05:00 274 0 gusting 4 11.7
2019-Aug-21 04:55 264 0 gusting 4 11.7
2019-Aug-21 04:50 282 2 gusting 6 11.7
2019-Aug-21 04:45 262 0 gusting 4 11.7
2019-Aug-21 04:40 348 0 gusting 4 11.7
2019-Aug-21 04:35 290 1 gusting 5 11.7
2019-Aug-21 04:30 268 1 gusting 6 11.7
2019-Aug-21 04:25 269 2 gusting 6 11.1
2019-Aug-21 04:20 275 0 gusting 5 11.1
2019-Aug-21 04:15 257 0 gusting 4 11.1
2019-Aug-21 04:10 268 1 gusting 4 11.1
2019-Aug-21 04:05 251 1 gusting 5 11.7
2019-Aug-21 04:00 242 0 gusting 2 11.7
2019-Aug-21 03:55 304 0 gusting 4 11.7
2019-Aug-21 03:50 248 0 gusting 4 11.7
2019-Aug-21 03:45 249 0 gusting 2 11.7
2019-Aug-21 03:40 267 0 gusting 5 11.7
2019-Aug-21 03:35 245 0 gusting 5 11.7
2019-Aug-21 03:30 356 2 gusting 6 11.7
2019-Aug-21 03:25 271 1 gusting 6 11.7
2019-Aug-21 03:20 284 1 gusting 5 11.7
2019-Aug-21 03:15 301 1 gusting 7 11.7
2019-Aug-21 03:10 264 0 gusting 4 11.7
2019-Aug-21 03:05 309 1 gusting 6 11.7
2019-Aug-21 03:00 291 1 gusting 6 11.7
2019-Aug-21 02:55 296 0 gusting 6 11.7
2019-Aug-21 02:50 315 2 gusting 6 11.7
2019-Aug-21 02:45 291 2 gusting 6 11.7
2019-Aug-21 02:40 291 2 gusting 6 11.7
2019-Aug-21 02:35 352 2 gusting 6 11.7
2019-Aug-21 02:30 346 3 gusting 8 11.7
2019-Aug-21 02:25 302 1 gusting 4 11.7
2019-Aug-21 02:20 263 2 gusting 8 11.7
2019-Aug-21 02:15 334 2 gusting 8 11.7
2019-Aug-21 02:10 260 1 gusting 4 11.7
2019-Aug-21 02:05 286 0 gusting 6 11.7
2019-Aug-21 02:00 286 2 gusting 7 11.7
2019-Aug-21 01:55 268 2 gusting 8 11.7
2019-Aug-21 01:50 272 1 gusting 5 11.7
2019-Aug-21 01:45 266 1 gusting 6 11.7
2019-Aug-21 01:40 287 1 gusting 6 11.1
2019-Aug-21 01:35 282 0 gusting 6 11.7
2019-Aug-21 01:30 306 1 gusting 5 11.7
2019-Aug-21 01:25 330 1 gusting 4 11.7
2019-Aug-21 01:20 254 11.7
2019-Aug-21 01:15 272 0 gusting 5 11.7
2019-Aug-21 01:10 288 1 gusting 4 11.7
2019-Aug-21 01:05 293 1 gusting 4 11.7
2019-Aug-21 01:00 267 2 gusting 4 11.7
2019-Aug-21 00:55 248 1 gusting 4 11.7
2019-Aug-21 00:50 257 0 gusting 2 11.7
2019-Aug-21 00:45 273 0 gusting 2 11.7
2019-Aug-21 00:40 280 1 gusting 5 11.7
2019-Aug-21 00:35 256 2 gusting 5 11.7
2019-Aug-21 00:30 267 1 gusting 6 11.7
2019-Aug-21 00:25 299 1 gusting 5 11.7
2019-Aug-21 00:20 276 2 gusting 6 11.7
2019-Aug-21 00:15 256 1 gusting 6 11.7
2019-Aug-21 00:10 278 1 gusting 6 11.7
2019-Aug-21 00:05 274 0 gusting 6 11.7
2019-Aug-21 00:00 282 2 gusting 6 11.7
2019-Aug-20 23:55 282 2 gusting 6 11.7
2019-Aug-20 23:50 290 2 gusting 5 11.7
2019-Aug-20 23:45 285 1 gusting 6 11.7
2019-Aug-20 23:40 297 1 gusting 6 11.7
2019-Aug-20 23:35 279 1 gusting 4 11.7
2019-Aug-20 23:30 248 0 gusting 6 12.2
2019-Aug-20 23:25 273 2 gusting 7 12.2
2019-Aug-20 23:20 262 1 gusting 5 12.2
2019-Aug-20 23:15 276 1 gusting 6 12.2
2019-Aug-20 23:10 282 0 gusting 6 12.2
2019-Aug-20 23:05 281 1 gusting 5 12.2
2019-Aug-20 23:00 290 2 gusting 6 12.2
2019-Aug-20 22:55 322 1 gusting 5 12.2
2019-Aug-20 22:50 302 2 gusting 7 12.2
2019-Aug-20 22:45 265 2 gusting 6 12.2
2019-Aug-20 22:40 298 2 gusting 6 12.2
2019-Aug-20 22:35 291 2 gusting 6 12.2
2019-Aug-20 22:30 272 2 gusting 7 12.8
2019-Aug-20 22:25 275 0 gusting 5 12.8
2019-Aug-20 22:20 287 2 gusting 10 12.8
2019-Aug-20 22:15 277 4 gusting 6 12.8
2019-Aug-20 22:10 260 2 gusting 6 12.8
2019-Aug-20 22:05 267 2 gusting 7 12.8
2019-Aug-20 22:00 273 2 gusting 7 12.8
2019-Aug-20 21:55 266 2 gusting 6 13.3
2019-Aug-20 21:50 286 1 gusting 7 13.3
2019-Aug-20 21:45 313 2 gusting 7 13.3
2019-Aug-20 21:40 284 1 gusting 7 13.3
2019-Aug-20 21:35 294 2 gusting 6 13.3
2019-Aug-20 21:30 284 2 gusting 8 13.3
2019-Aug-20 21:25 271 2 gusting 7 13.3
2019-Aug-20 21:20 291 1 gusting 4 13.3
2019-Aug-20 21:15 273 1 gusting 6 13.3
2019-Aug-20 21:10 284 2 gusting 5 13.9
2019-Aug-20 21:05 286 1 gusting 5 13.9
2019-Aug-20 21:00 284 1 gusting 6 13.9
2019-Aug-20 20:55 263 1 gusting 6 13.9
2019-Aug-20 20:50 272 3 gusting 8 13.9
2019-Aug-20 20:45 280 2 gusting 6 13.9
2019-Aug-20 20:40 281 1 gusting 5 13.9
2019-Aug-20 20:35 278 0 gusting 7 13.9
2019-Aug-20 20:30 307 1 gusting 6 13.9
2019-Aug-20 20:25 293 0 gusting 2 13.9
2019-Aug-20 20:20 268 0 gusting 7 14.4
2019-Aug-20 20:15 282 1 gusting 5 14.4
2019-Aug-20 20:10 275 1 gusting 8 14.4
2019-Aug-20 20:05 290 1 gusting 5 14.4
2019-Aug-20 20:00 283 0 gusting 2 14.4
2019-Aug-20 19:55 259 1 gusting 6 14.4
2019-Aug-20 19:50 260 1 gusting 10 14.4
2019-Aug-20 19:45 316 0 gusting 6 14.4
2019-Aug-20 19:40 269 0 gusting 2 14.4
2019-Aug-20 19:35 346 2 gusting 6 14.4
2019-Aug-20 19:30 286 1 gusting 6 14.4
2019-Aug-20 19:25 251 2 gusting 6 14.4
2019-Aug-20 19:20 307 1 gusting 6 14.4
2019-Aug-20 19:15 337 1 gusting 6 14.4
2019-Aug-20 19:10 276 1 gusting 7 15.0
2019-Aug-20 19:05 282 2 gusting 5 15.0
2019-Aug-20 19:00 271 3 gusting 7 15.0
2019-Aug-20 18:55 335 1 gusting 4 15.0
2019-Aug-20 18:50 261 4 gusting 11 15.0
2019-Aug-20 18:45 330 3 gusting 7 15.0
2019-Aug-20 18:40 262 3 gusting 6 15.0
2019-Aug-20 18:35 287 2 gusting 7 15.6
2019-Aug-20 18:30 324 2 gusting 7 15.6
2019-Aug-20 18:25 349 4 gusting 7 15.6
2019-Aug-20 18:20 15.6
2019-Aug-20 18:15 340 2 gusting 6 15.6
2019-Aug-20 18:10 322 4 gusting 7 15.6
2019-Aug-20 18:05 338 2 gusting 10 16.1
2019-Aug-20 18:00 358 3 gusting 8 16.1
2019-Aug-20 17:55 350 2 gusting 11 16.1
2019-Aug-20 17:50 302 2 gusting 11 16.1
2019-Aug-20 17:45 358 4 gusting 7 16.1
2019-Aug-20 17:40 347 5 gusting 10 16.1
2019-Aug-20 17:35 343 3 gusting 10 16.1
2019-Aug-20 17:30 300 4 gusting 10 16.1
2019-Aug-20 17:25 284 4 gusting 11 16.1
2019-Aug-20 17:20 323 4 gusting 10 16.7
2019-Aug-20 17:15 326 4 gusting 12 16.7
2019-Aug-20 17:10 335 5 gusting 10 16.7
2019-Aug-20 17:05 16.7
2019-Aug-20 17:00 339 5 gusting 10 16.7
2019-Aug-20 16:55 280 5 gusting 11 16.7
2019-Aug-20 16:50 332 5 gusting 11 16.7
2019-Aug-20 16:45 305 4 gusting 10 16.7
2019-Aug-20 16:40 353 3 gusting 11 17.2
2019-Aug-20 16:35 267 2 gusting 10 17.2
2019-Aug-20 16:30 294 4 gusting 8 17.2
2019-Aug-20 16:25 351 5 gusting 12 17.2
2019-Aug-20 16:20 349 4 gusting 10 17.2
2019-Aug-20 16:15 17.2
2019-Aug-20 16:10 345 3 gusting 11 17.8
2019-Aug-20 16:05 292 5 gusting 11 17.2
2019-Aug-20 16:00 323 4 gusting 10 17.2
2019-Aug-20 15:55 351 4 gusting 12 17.2
2019-Aug-20 15:50 330 4 gusting 11 17.2
2019-Aug-20 15:45 354 6 gusting 10 17.2
2019-Aug-20 15:40 323 4 gusting 10 17.2
2019-Aug-20 15:35 336 6 gusting 13 17.2
2019-Aug-20 15:30 346 4 gusting 13 17.2
2019-Aug-20 15:25 358 7 gusting 12 17.2
2019-Aug-20 15:20 344 5 gusting 10 17.8
2019-Aug-20 15:15 356 5 gusting 13 17.8
2019-Aug-20 15:10 357 4 gusting 13 17.2
2019-Aug-20 15:05 345 5 gusting 11 17.2
2019-Aug-20 15:00 354 9 gusting 13 17.2
2019-Aug-20 14:55 339 4 gusting 13 17.2
2019-Aug-20 14:50 338 7 gusting 15 17.2
2019-Aug-20 14:45 352 6 gusting 12 17.2
2019-Aug-20 14:40 314 9 gusting 15 17.2
2019-Aug-20 14:35 337 7 gusting 13 17.2
2019-Aug-20 14:30 305 6 gusting 11 17.8
2019-Aug-20 14:25 358 6 gusting 11 17.8
2019-Aug-20 14:20 354 6 gusting 13 17.8
2019-Aug-20 14:15 323 4 gusting 11 17.8
2019-Aug-20 14:10 294 4 gusting 15 17.8
2019-Aug-20 14:05 358 7 gusting 14 17.8
2019-Aug-20 14:00 355 6 gusting 14 17.8
2019-Aug-20 13:55 351 5 gusting 11 17.8
2019-Aug-20 13:50 337 6 gusting 13 17.8
2019-Aug-20 13:45 357 5 gusting 13 17.8
2019-Aug-20 13:40 323 9 gusting 17 17.8
2019-Aug-20 13:35 355 7 gusting 17 17.8
2019-Aug-20 13:30 358 6 gusting 11 17.8
2019-Aug-20 13:25 349 6 gusting 13 17.8
2019-Aug-20 13:20 357 10 gusting 13 17.8
2019-Aug-20 13:15 358 7 gusting 13 17.8
2019-Aug-20 13:10 327 6 gusting 12 17.8
2019-Aug-20 13:05 354 6 gusting 10 17.8
2019-Aug-20 13:00 357 8 gusting 15 17.8
2019-Aug-20 12:55 345 6 gusting 13 17.8
2019-Aug-20 12:50 356 7 gusting 13 17.8
2019-Aug-20 12:45 319 5 gusting 13 17.8
2019-Aug-20 12:40 302 5 gusting 14 17.8
2019-Aug-20 12:35 341 6 gusting 12 17.8
2019-Aug-20 12:30 325 8 gusting 14 17.8
2019-Aug-20 12:25 355 8 gusting 14 17.8
2019-Aug-20 12:20 17.8
2019-Aug-20 12:15 18.3
2019-Aug-20 12:10 342 7 gusting 17 18.3
2019-Aug-20 12:05 18.3
2019-Aug-20 12:00 341 6 gusting 13 17.8
2019-Aug-20 11:55 353 6 gusting 11 18.3
2019-Aug-20 11:50 333 4 gusting 10 17.8
2019-Aug-20 11:45 341 6 gusting 12 17.8
2019-Aug-20 11:40 347 11 gusting 18 17.8
2019-Aug-20 11:35 324 7 gusting 13 17.8
2019-Aug-20 11:30 324 6 gusting 13 17.8
2019-Aug-20 11:25 340 9 gusting 14 17.8
2019-Aug-20 11:20 349 6 gusting 11 17.8
2019-Aug-20 11:15 343 6 gusting 17 17.8
2019-Aug-20 11:10 358 8 gusting 20 17.8
2019-Aug-20 11:05 354 11 gusting 17 17.8
2019-Aug-20 11:00 356 9 gusting 17 17.8
2019-Aug-20 10:55 351 7 gusting 13 17.8
2019-Aug-20 10:50 354 7 gusting 18 17.2
2019-Aug-20 10:45 357 11 gusting 19 17.2
2019-Aug-20 10:40 358 8 gusting 19 17.8
2019-Aug-20 10:35 353 10 gusting 17 17.8
2019-Aug-20 10:30 348 10 gusting 17 17.8
2019-Aug-20 10:25 352 9 gusting 17 17.8
2019-Aug-20 10:20 338 5 gusting 13 17.8
2019-Aug-20 10:15 345 8 gusting 14 17.2
2019-Aug-20 10:10 357 8 gusting 17 17.2
2019-Aug-20 10:05 17.2
2019-Aug-20 10:00 354 7 gusting 17 17.2
2019-Aug-20 09:55 17.2
2019-Aug-20 09:50 17.2
2019-Aug-20 09:45 359 7 gusting 17 17.8
2019-Aug-20 09:40 357 5 gusting 15 17.8
2019-Aug-20 09:35 17.8
2019-Aug-20 09:30 348 8 gusting 13 17.8
2019-Aug-20 09:25 343 8 gusting 14 17.2
2019-Aug-20 09:20 345 11 gusting 15 17.2
2019-Aug-20 09:15 352 7 gusting 14 17.8
2019-Aug-20 09:10 347 7 gusting 13 17.8
2019-Aug-20 09:05 340 5 gusting 13 17.2
2019-Aug-20 09:00 356 6 gusting 15 17.2
2019-Aug-20 08:55 357 10 gusting 17 17.2
2019-Aug-20 08:50 17.2
2019-Aug-20 08:45 357 10 gusting 17 17.2
2019-Aug-20 08:40 345 8 gusting 15 17.2
2019-Aug-20 08:35 344 6 gusting 12 17.2
2019-Aug-20 08:30 355 7 gusting 13 17.2
2019-Aug-20 08:25 356 6 gusting 13 17.2
2019-Aug-20 08:20 17.2
2019-Aug-20 08:15 16.7
2019-Aug-20 08:10 349 5 gusting 12 16.7
2019-Aug-20 08:05 16.7
2019-Aug-20 08:00 356 7 gusting 13 17.2
2019-Aug-20 07:55 356 5 gusting 12 17.2
2019-Aug-20 07:50 16.7
2019-Aug-20 07:45 356 7 gusting 13 16.7
2019-Aug-20 07:40 355 8 gusting 13 16.7
2019-Aug-20 07:35 16.7
2019-Aug-20 07:30 16.7
2019-Aug-20 07:25 352 6 gusting 11 16.7
2019-Aug-20 07:20 339 7 gusting 13 16.7
2019-Aug-20 07:15 16.1
2019-Aug-20 07:10 358 5 gusting 8 16.1
2019-Aug-20 07:05 16.1
2019-Aug-20 07:00 001 6 gusting 11 16.1
2019-Aug-20 06:55 16.1
2019-Aug-20 06:50 16.1
2019-Aug-20 06:45 15.6
2019-Aug-20 06:40 355 5 gusting 14 15.6
2019-Aug-20 06:35 15.6
2019-Aug-20 06:30 15.0
2019-Aug-20 06:25 15.0
2019-Aug-20 06:20 14.4
2019-Aug-20 06:15 14.4
2019-Aug-20 06:10 14.4
2019-Aug-20 06:05 15.0
2019-Aug-20 06:00 359 6 gusting 15 15.0
2019-Aug-20 05:55 15.6
2019-Aug-20 05:50 15.6
2019-Aug-20 05:45 15.6
2019-Aug-20 05:40 15.6
2019-Aug-20 05:35 15.6
2019-Aug-20 05:30 15.0
2019-Aug-20 05:25 15.0
2019-Aug-20 05:20 15.0
2019-Aug-20 05:15 15.0
2019-Aug-20 05:10 001 6 gusting 11 15.0
2019-Aug-20 05:05 15.0
2019-Aug-20 05:00 15.0
2019-Aug-20 04:55 15.6
2019-Aug-20 04:50 15.6
2019-Aug-20 04:45 15.6
2019-Aug-20 04:40 353 5 gusting 10 15.6
2019-Aug-20 04:35 353 5 gusting 10 15.6
2019-Aug-20 04:30 356 6 gusting 12 15.6
2019-Aug-20 04:25 15.6
2019-Aug-20 04:20 15.6
2019-Aug-20 04:15 353 5 gusting 13 15.0
2019-Aug-20 04:10 15.0
2019-Aug-20 04:05 355 5 gusting 8 15.0
2019-Aug-20 04:00 354 5 gusting 8 15.0
2019-Aug-20 03:55 277 2 gusting 6 15.0
2019-Aug-20 03:50 350 4 gusting 8 15.0
2019-Aug-20 03:45 15.0
2019-Aug-20 03:40 15.0
2019-Aug-20 03:35 15.0
2019-Aug-20 03:30 348 5 gusting 11 15.0
2019-Aug-20 03:25 357 4 gusting 10 15.0
2019-Aug-20 03:20 358 3 gusting 8 15.0
2019-Aug-20 03:15 358 3 gusting 11 15.0
2019-Aug-20 03:10 344 4 gusting 11 15.0
2019-Aug-20 03:05 314 3 gusting 10 15.0
2019-Aug-20 03:00 350 1 gusting 6 14.4
2019-Aug-20 02:55 336 2 gusting 6 14.4
2019-Aug-20 02:50 259 4 gusting 10 14.4
2019-Aug-20 02:45 263 1 gusting 6 14.4
2019-Aug-20 02:40 337 2 gusting 8 14.4
2019-Aug-20 02:35 269 1 gusting 2 13.9
2019-Aug-20 02:30 269 0 gusting 4 13.9
2019-Aug-20 02:25 266 0 gusting 2 13.9
2019-Aug-20 02:20 265 0 gusting 5 13.9
2019-Aug-20 02:15 252 1 gusting 6 13.9
2019-Aug-20 02:10 244 1 gusting 4 13.9
2019-Aug-20 02:05 265 13.9
2019-Aug-20 02:00 275 0 gusting 2 13.9
2019-Aug-20 01:55 259 13.9
2019-Aug-20 01:50 257 0 gusting 2 13.9
2019-Aug-20 01:45 258 13.9
2019-Aug-20 01:40 13.9
2019-Aug-20 01:35 265 0 gusting 2 13.9
2019-Aug-20 01:30 273 0 gusting 4 13.9
2019-Aug-20 01:25 247 0 gusting 4 13.9
2019-Aug-20 01:20 13.9
2019-Aug-20 01:15 252 0 gusting 2 13.9
2019-Aug-20 01:10 254 0 gusting 4 13.9
2019-Aug-20 01:05 285 13.9
2019-Aug-20 01:00 281 0 gusting 4 13.9
2019-Aug-20 00:55 265 13.9
2019-Aug-20 00:50 266 0 gusting 2 13.9
2019-Aug-20 00:45 257 0 gusting 2 13.9
2019-Aug-20 00:40 273 0 gusting 4 14.4
2019-Aug-20 00:35 265 14.4
2019-Aug-20 00:30 259 0 gusting 4 14.4
2019-Aug-20 00:25 264 1 gusting 6 14.4
2019-Aug-20 00:20 270 1 gusting 6 14.4
2019-Aug-20 00:15 320 0 gusting 6 14.4
2019-Aug-20 00:10 285 3 gusting 7 13.9
2019-Aug-20 00:05 275 1 gusting 6 13.9
2019-Aug-20 00:00 263 0 gusting 6 13.9
2019-Aug-19 23:55 333 0 gusting 2 13.9
2019-Aug-19 23:50 248 13.9
2019-Aug-19 23:45 275 1 gusting 4 13.9
2019-Aug-19 23:40 275 0 gusting 2 13.9
2019-Aug-19 23:35 286 1 gusting 4 13.9
2019-Aug-19 23:30 252 0 gusting 5 13.9
2019-Aug-19 23:25 281 1 gusting 5 13.9
2019-Aug-19 23:20 289 0 gusting 4 13.9
2019-Aug-19 23:15 257 3 gusting 6 13.9
2019-Aug-19 23:10 252 4 gusting 10 13.9
2019-Aug-19 23:05 296 0 gusting 4 13.9
2019-Aug-19 23:00 259 0 gusting 6 13.9
2019-Aug-19 22:55 298 0 gusting 6 13.9
2019-Aug-19 22:50 262 0 gusting 2 13.9
2019-Aug-19 22:45 275 0 gusting 2 13.9
2019-Aug-19 22:40 264 0 gusting 2 13.9
2019-Aug-19 22:35 280 0 gusting 2 13.9
2019-Aug-19 22:30 270 13.9
2019-Aug-19 22:25 269 0 gusting 2 13.9
2019-Aug-19 22:20 247 13.9
2019-Aug-19 22:15 246 1 gusting 4 13.9
2019-Aug-19 22:10 259 13.9
2019-Aug-19 22:05 259 0 gusting 2 13.9
2019-Aug-19 22:00 277 0 gusting 2 13.9
2019-Aug-19 21:55 252 0 gusting 6 14.4
2019-Aug-19 21:50 359 0 gusting 6 14.4
2019-Aug-19 21:45 317 2 gusting 7 14.4
2019-Aug-19 21:40 290 0 gusting 6 14.4
2019-Aug-19 21:35 260 1 gusting 4 14.4
2019-Aug-19 21:30 250 1 gusting 4 15.0
2019-Aug-19 21:25 246 0 gusting 4 15.0
2019-Aug-19 21:20 245 1 gusting 7 15.0
2019-Aug-19 21:15 353 2 gusting 6 15.0
2019-Aug-19 21:10 296 2 gusting 8 15.0
2019-Aug-19 21:05 337 2 gusting 6 15.0
2019-Aug-19 21:00 15.0
2019-Aug-19 20:55 328 4 gusting 8 15.0
2019-Aug-19 20:50 15.0
2019-Aug-19 20:45 355 2 gusting 7 15.0
2019-Aug-19 20:40 274 1 gusting 6 15.0
2019-Aug-19 20:35 281 3 gusting 7 15.0
2019-Aug-19 20:30 315 4 gusting 11 15.0
2019-Aug-19 20:25 301 4 gusting 10 15.0
2019-Aug-19 20:20 342 4 gusting 10 15.0
2019-Aug-19 20:15 348 1 gusting 5 15.0
2019-Aug-19 20:10 267 1 gusting 5 15.0
2019-Aug-19 20:05 351 2 gusting 6 15.0
2019-Aug-19 20:00 15.0